Akeley, Minnesota
Current Conditions -  °F | °C
As of 7:55 PM on Thursday 18 Dec 2014 (Local Time) from KY49 Reporting Station
Overcast Overcast  
Wind Chill:   Ceiling: 1000
Heat Index: 17°   Visibility: 10mi
Dew Point: 14°   Wind: 8mph
Humidity: 87%   Direction: 160°SSE
Pressure: 30.19"   Gusts: NA
Location:  47°N, 94.73°W
Report Text: KY49 190155Z AUTO 16007KT 10SM OVC010 M08/M10 A3019 RMK AO2 T10821100
Loading
Personal Weather Stations






























Interactive Weather Map New forecast layout! Learn more

10-Day Weather Forecast

Advertisements
Track Severe Weather on mobile